Main page
METAR-TAF:

METAR-TAF

Airports :

RAF Waddington

Waddington, England

latitude: 53-10N, longitude: 000-31W, elevation: 68 m

Current weather observation

The report was made 48 minutes ago, at 23:50 UTC
Wind 12 kt from the North/Northeast
Temperature 8°C
Humidity 93%
Pressure 1025 hPa
Visibility 10 km or more

METAR: EGXW 232350Z AUTO 02012KT 9999 NCD 08/07 Q1025

Time: 01:38 (00:38 UTC)

Forecast

The report was made 2 hours and 20 minutes ago, at 22:18 UTC
Forecast valid from 24 at 00 UTC to 24 at 18 UTC
Wind 12 kt from the North/Northeast
Visibility: 8000 m
Broken clouds at a height of 600 ft
haze
Probability 40% :
Temporary
from 24 at 00 UTC to 24 at 07 UTC
Visibility: 5000 m
Broken clouds at a height of 300 ft
mist
Becoming
from 24 at 07 UTC to 24 at 09 UTC
Scattered clouds at a height of 1200 ft
Becoming
from 24 at 09 UTC to 24 at 11 UTC
Few clouds at a height of 2000 ft

TAF: EGXW 232218Z 2400/2418 03012KT 8000 HZ BKN006 PROB40 TEMPO 2400/2407 5000 BR BKN003 BECMG 2407/2409 SCT012 BECMG 2409/2411 FEW020

Weather observations and forecasts of more than 4000 airports (METAR and TAF reports).

The available stations are represented by yellow and red dots on the map.

Hover mouse over dot to see the name of the station.

Then click to see weather observations and forecasts.

To change the map : click on the green buttons with a black cross to zoom in, on the green button with a dash to zoom out, or on the green arrows for adjacent maps.


METAR-TAF: